sensor_id;sensor_type;location;lat;lon;timestamp;temperature;humidity
6958;DHT22;50346;51.268;15.942;2022-07-10T00:01:48;14.20;99.90
6958;DHT22;50346;51.268;15.942;2022-07-10T00:04:13;14.20;99.90
6958;DHT22;50346;51.268;15.942;2022-07-10T00:06:39;14.10;99.90
6958;DHT22;50346;51.268;15.942;2022-07-10T00:09:07;14.10;99.90
6958;DHT22;50346;51.268;15.942;2022-07-10T00:11:33;14.10;99.90
6958;DHT22;50346;51.268;15.942;2022-07-10T00:13:58;14.00;99.90
6958;DHT22;50346;51.268;15.942;2022-07-10T00:16:24;14.10;99.90
6958;DHT22;50346;51.268;15.942;2022-07-10T00:18:50;14.00;99.90
6958;DHT22;50346;51.268;15.942;2022-07-10T00:21:16;14.00;99.90
6958;DHT22;50346;51.268;15.942;2022-07-10T00:23:42;14.10;99.90
6958;DHT22;50346;51.268;15.942;2022-07-10T00:26:08;14.00;99.90
6958;DHT22;50346;51.268;15.942;2022-07-10T00:28:34;14.00;99.90
6958;DHT22;50346;51.268;15.942;2022-07-10T00:31:00;14.00;99.90
6958;DHT22;50346;51.268;15.942;2022-07-10T00:33:26;14.00;99.90
6958;DHT22;50346;51.268;15.942;2022-07-10T00:35:53;14.00;99.90
6958;DHT22;50346;51.268;15.942;2022-07-10T00:38:19;14.00;99.90
6958;DHT22;50346;51.268;15.942;2022-07-10T00:40:44;14.00;99.90
6958;DHT22;50346;51.268;15.942;2022-07-10T00:43:11;13.90;99.90
6958;DHT22;50346;51.268;15.942;2022-07-10T00:45:36;13.90;99.90
6958;DHT22;50346;51.268;15.942;2022-07-10T00:48:02;13.90;99.90
6958;DHT22;50346;51.268;15.942;2022-07-10T00:50:28;13.80;99.90
6958;DHT22;50346;51.268;15.942;2022-07-10T00:52:54;13.80;99.90
6958;DHT22;50346;51.268;15.942;2022-07-10T00:55:21;13.80;99.90
6958;DHT22;50346;51.268;15.942;2022-07-10T00:57:47;13.80;99.90
6958;DHT22;50346;51.268;15.942;2022-07-10T01:00:13;13.80;99.90
6958;DHT22;50346;51.268;15.942;2022-07-10T01:02:43;13.80;99.90
6958;DHT22;50346;51.268;15.942;2022-07-10T01:05:09;13.80;99.90
6958;DHT22;50346;51.268;15.942;2022-07-10T01:07:35;13.80;99.90
6958;DHT22;50346;51.268;15.942;2022-07-10T01:10:03;13.80;99.90
6958;DHT22;50346;51.268;15.942;2022-07-10T01:12:28;13.80;99.90
6958;DHT22;50346;51.268;15.942;2022-07-10T01:14:55;13.80;99.90
6958;DHT22;50346;51.268;15.942;2022-07-10T01:17:21;13.90;99.90
6958;DHT22;50346;51.268;15.942;2022-07-10T01:19:47;13.80;99.90
6958;DHT22;50346;51.268;15.942;2022-07-10T01:22:13;13.90;99.90
6958;DHT22;50346;51.268;15.942;2022-07-10T01:24:39;13.90;99.90
6958;DHT22;50346;51.268;15.942;2022-07-10T01:27:05;13.90;99.90
6958;DHT22;50346;51.268;15.942;2022-07-10T01:29:30;13.90;99.90
6958;DHT22;50346;51.268;15.942;2022-07-10T01:31:57;13.80;99.90
6958;DHT22;50346;51.268;15.942;2022-07-10T01:34:26;13.80;99.90
6958;DHT22;50346;51.268;15.942;2022-07-10T01:36:52;13.80;99.90
6958;DHT22;50346;51.268;15.942;2022-07-10T01:39:17;13.90;99.90
6958;DHT22;50346;51.268;15.942;2022-07-10T01:41:43;13.90;99.90
6958;DHT22;50346;51.268;15.942;2022-07-10T01:44:08;13.90;99.90
6958;DHT22;50346;51.268;15.942;2022-07-10T01:46:34;13.90;99.90
6958;DHT22;50346;51.268;15.942;2022-07-10T01:49:00;13.90;99.90
6958;DHT22;50346;51.268;15.942;2022-07-10T01:51:25;13.90;99.90
6958;DHT22;50346;51.268;15.942;2022-07-10T01:53:51;13.90;99.90
6958;DHT22;50346;51.268;15.942;2022-07-10T01:56:17;13.90;99.90
6958;DHT22;50346;51.268;15.942;2022-07-10T01:58:42;13.90;99.90
6958;DHT22;50346;51.268;15.942;2022-07-10T02:01:09;13.90;99.90
6958;DHT22;50346;51.268;15.942;2022-07-10T02:03:35;13.90;99.90
6958;DHT22;50346;51.268;15.942;2022-07-10T02:06:19;13.90;99.90
6958;DHT22;50346;51.268;15.942;2022-07-10T02:08:45;13.90;99.90
6958;DHT22;50346;51.268;15.942;2022-07-10T02:11:10;13.90;99.90
6958;DHT22;50346;51.268;15.942;2022-07-10T02:13:38;13.90;99.90
6958;DHT22;50346;51.268;15.942;2022-07-10T02:16:03;13.90;99.90
6958;DHT22;50346;51.268;15.942;2022-07-10T02:18:29;13.80;99.90
6958;DHT22;50346;51.268;15.942;2022-07-10T02:20:55;13.80;99.90
6958;DHT22;50346;51.268;15.942;2022-07-10T02:23:21;13.80;99.90
6958;DHT22;50346;51.268;15.942;2022-07-10T02:25:47;13.70;99.90
6958;DHT22;50346;51.268;15.942;2022-07-10T02:28:12;13.80;99.90
6958;DHT22;50346;51.268;15.942;2022-07-10T02:30:38;13.70;99.90
6958;DHT22;50346;51.268;15.942;2022-07-10T02:33:04;13.70;99.90
6958;DHT22;50346;51.268;15.942;2022-07-10T02:35:29;13.70;99.90
6958;DHT22;50346;51.268;15.942;2022-07-10T02:37:55;13.70;99.90
6958;DHT22;50346;51.268;15.942;2022-07-10T02:40:20;13.70;99.90
6958;DHT22;50346;51.268;15.942;2022-07-10T02:45:12;13.70;99.90
6958;DHT22;50346;51.268;15.942;2022-07-10T02:47:38;13.60;99.90
6958;DHT22;50346;51.268;15.942;2022-07-10T02:50:04;13.60;99.90
6958;DHT22;50346;51.268;15.942;2022-07-10T02:52:29;13.60;99.90
6958;DHT22;50346;51.268;15.942;2022-07-10T02:54:56;13.50;95.60
6958;DHT22;50346;51.268;15.942;2022-07-10T02:57:22;13.50;94.20
6958;DHT22;50346;51.268;15.942;2022-07-10T02:59:48;13.40;94.20
6958;DHT22;50346;51.268;15.942;2022-07-10T03:02:13;13.40;94.20
6958;DHT22;50346;51.268;15.942;2022-07-10T03:04:39;13.40;95.60
6958;DHT22;50346;51.268;15.942;2022-07-10T03:07:05;13.40;97.10
6958;DHT22;50346;51.268;15.942;2022-07-10T03:09:30;13.30;98.40
6958;DHT22;50346;51.268;15.942;2022-07-10T03:11:56;13.30;99.90
6958;DHT22;50346;51.268;15.942;2022-07-10T03:14:21;13.30;99.90
6958;DHT22;50346;51.268;15.942;2022-07-10T03:16:49;13.50;99.90
6958;DHT22;50346;51.268;15.942;2022-07-10T03:19:15;13.40;99.90
6958;DHT22;50346;51.268;15.942;2022-07-10T03:21:41;13.40;99.90
6958;DHT22;50346;51.268;15.942;2022-07-10T03:24:06;13.40;99.90
6958;DHT22;50346;51.268;15.942;2022-07-10T03:26:32;13.40;99.90
6958;DHT22;50346;51.268;15.942;2022-07-10T03:28:57;13.40;99.90
6958;DHT22;50346;51.268;15.942;2022-07-10T03:31:23;13.40;99.90
6958;DHT22;50346;51.268;15.942;2022-07-10T03:33:48;13.30;99.90
6958;DHT22;50346;51.268;15.942;2022-07-10T03:36:14;13.30;99.90
6958;DHT22;50346;51.268;15.942;2022-07-10T03:38:40;13.20;99.90
6958;DHT22;50346;51.268;15.942;2022-07-10T03:41:06;13.20;99.90
6958;DHT22;50346;51.268;15.942;2022-07-10T04:53:52;13.80;32.30
6958;DHT22;50346;51.268;15.942;2022-07-10T04:56:20;13.80;30.40
6958;DHT22;50346;51.268;15.942;2022-07-10T04:58:45;13.80;29.70
6958;DHT22;50346;51.268;15.942;2022-07-10T05:01:11;13.80;25.70
6958;DHT22;50346;51.268;15.942;2022-07-10T05:03:36;13.90;20.60
6958;DHT22;50346;51.268;15.942;2022-07-10T05:06:02;13.80;23.20
6958;DHT22;50346;51.268;15.942;2022-07-10T05:08:28;13.80;27.40
6958;DHT22;50346;51.268;15.942;2022-07-10T05:10:53;13.80;8.30
6958;DHT22;50346;51.268;15.942;2022-07-10T05:13:19;13.80;4.60
6958;DHT22;50346;51.268;15.942;2022-07-10T05:15:47;13.80;1.00
6958;DHT22;50346;51.268;15.942;2022-07-10T05:18:13;13.80;4.20
6958;DHT22;50346;51.268;15.942;2022-07-10T05:20:39;13.80;8.60
6958;DHT22;50346;51.268;15.942;2022-07-10T05:23:08;13.80;17.20
6958;DHT22;50346;51.268;15.942;2022-07-10T05:25:33;13.80;18.50
6958;DHT22;50346;51.268;15.942;2022-07-10T05:27:59;13.80;19.40
6958;DHT22;50346;51.268;15.942;2022-07-10T05:30:24;13.80;20.20
6958;DHT22;50346;51.268;15.942;2022-07-10T05:32:50;13.90;23.00
6958;DHT22;50346;51.268;15.942;2022-07-10T05:35:16;13.90;18.00
6958;DHT22;50346;51.268;15.942;2022-07-10T05:37:41;13.90;18.90
6958;DHT22;50346;51.268;15.942;2022-07-10T05:40:08;13.90;9.90
6958;DHT22;50346;51.268;15.942;2022-07-10T05:42:34;13.90;7.80
6958;DHT22;50346;51.268;15.942;2022-07-10T05:44:59;13.90;5.70
6958;DHT22;50346;51.268;15.942;2022-07-10T05:47:25;13.90;2.30
6958;DHT22;50346;51.268;15.942;2022-07-10T05:49:51;13.90;1.00
6958;DHT22;50346;51.268;15.942;2022-07-10T05:54:43;14.00;3.40
6958;DHT22;50346;51.268;15.942;2022-07-10T05:57:09;14.00;1.00
6958;DHT22;50346;51.268;15.942;2022-07-10T05:59:35;14.00;1.00
6958;DHT22;50346;51.268;15.942;2022-07-10T06:02:03;14.10;1.00
6958;DHT22;50346;51.268;15.942;2022-07-10T06:04:29;14.10;1.00
6958;DHT22;50346;51.268;15.942;2022-07-10T06:06:55;14.20;1.00
6958;DHT22;50346;51.268;15.942;2022-07-10T06:09:20;14.20;1.00
6958;DHT22;50346;51.268;15.942;2022-07-10T06:11:46;14.30;1.00
6958;DHT22;50346;51.268;15.942;2022-07-10T06:14:13;14.30;1.00
6958;DHT22;50346;51.268;15.942;2022-07-10T06:19:07;14.30;1.00
6958;DHT22;50346;51.268;15.942;2022-07-10T06:21:33;14.40;1.00
6958;DHT22;50346;51.268;15.942;2022-07-10T06:23:58;14.40;1.00
6958;DHT22;50346;51.268;15.942;2022-07-10T06:26:24;14.40;1.00
6958;DHT22;50346;51.268;15.942;2022-07-10T07:50:20;16.20;99.90
6958;DHT22;50346;51.268;15.942;2022-07-10T07:52:47;16.20;99.90
6958;DHT22;50346;51.268;15.942;2022-07-10T07:55:15;16.20;9.60
6958;DHT22;50346;51.268;15.942;2022-07-10T07:57:42;16.10;99.90
6958;DHT22;50346;51.268;15.942;2022-07-10T08:00:08;16.00;99.90
6958;DHT22;50346;51.268;15.942;2022-07-10T08:02:35;16.00;99.90
6958;DHT22;50346;51.268;15.942;2022-07-10T08:05:01;15.90;99.90
6958;DHT22;50346;51.268;15.942;2022-07-10T08:07:34;15.80;29.20
6958;DHT22;50346;51.268;15.942;2022-07-10T08:10:00;15.70;99.90
6958;DHT22;50346;51.268;15.942;2022-07-10T08:12:26;15.60;99.90
6958;DHT22;50346;51.268;15.942;2022-07-10T08:14:51;15.60;99.90
6958;DHT22;50346;51.268;15.942;2022-07-10T08:17:17;15.60;99.90
6958;DHT22;50346;51.268;15.942;2022-07-10T08:19:43;15.60;99.90
6958;DHT22;50346;51.268;15.942;2022-07-10T08:22:08;15.60;99.90
6958;DHT22;50346;51.268;15.942;2022-07-10T08:24:34;15.70;1.00
6958;DHT22;50346;51.268;15.942;2022-07-10T08:26:59;15.70;1.00
6958;DHT22;50346;51.268;15.942;2022-07-10T08:29:25;15.80;1.00
6958;DHT22;50346;51.268;15.942;2022-07-10T08:31:50;15.80;99.90
6958;DHT22;50346;51.268;15.942;2022-07-10T08:34:16;15.70;99.90
6958;DHT22;50346;51.268;15.942;2022-07-10T08:36:42;15.70;99.90
6958;DHT22;50346;51.268;15.942;2022-07-10T08:39:07;15.60;1.00
6958;DHT22;50346;51.268;15.942;2022-07-10T08:41:34;15.60;1.00
6958;DHT22;50346;51.268;15.942;2022-07-10T08:44:02;15.60;99.90
6958;DHT22;50346;51.268;15.942;2022-07-10T08:46:28;15.50;15.10
6958;DHT22;50346;51.268;15.942;2022-07-10T08:48:58;15.50;59.80
6958;DHT22;50346;51.268;15.942;2022-07-10T08:51:36;15.50;99.90
6958;DHT22;50346;51.268;15.942;2022-07-10T08:54:04;15.70;99.90
6958;DHT22;50346;51.268;15.942;2022-07-10T09:18:56;16.00;99.90
6958;DHT22;50346;51.268;15.942;2022-07-10T09:23:48;15.50;99.90
6958;DHT22;50346;51.268;15.942;2022-07-10T09:26:14;15.30;1.00
6958;DHT22;50346;51.268;15.942;2022-07-10T09:28:40;15.10;1.00
6958;DHT22;50346;51.268;15.942;2022-07-10T09:31:06;15.10;1.00
6958;DHT22;50346;51.268;15.942;2022-07-10T09:33:32;15.20;1.00
6958;DHT22;50346;51.268;15.942;2022-07-10T09:36:07;15.30;1.00
6958;DHT22;50346;51.268;15.942;2022-07-10T09:41:15;15.80;1.00
6958;DHT22;50346;51.268;15.942;2022-07-10T09:43:49;15.80;99.90
6958;DHT22;50346;51.268;15.942;2022-07-10T09:46:16;15.80;99.90
6958;DHT22;50346;51.268;15.942;2022-07-10T09:48:42;15.70;1.00
6958;DHT22;50346;51.268;15.942;2022-07-10T09:51:09;15.80;1.00
6958;DHT22;50346;51.268;15.942;2022-07-10T09:56:10;15.90;99.90
6958;DHT22;50346;51.268;15.942;2022-07-10T09:58:37;15.90;99.90
6958;DHT22;50346;51.268;15.942;2022-07-10T10:01:07;15.80;99.90
6958;DHT22;50346;51.268;15.942;2022-07-10T10:03:38;15.90;99.90
6958;DHT22;50346;51.268;15.942;2022-07-10T10:06:16;15.90;99.90
6958;DHT22;50346;51.268;15.942;2022-07-10T10:08:54;15.90;99.90
6958;DHT22;50346;51.268;15.942;2022-07-10T10:11:23;15.90;99.90
6958;DHT22;50346;51.268;15.942;2022-07-10T10:13:51;15.90;1.00
6958;DHT22;50346;51.268;15.942;2022-07-10T10:16:19;15.90;1.00
6958;DHT22;50346;51.268;15.942;2022-07-10T10:31:20;16.80;1.00
6958;DHT22;50346;51.268;15.942;2022-07-10T10:33:46;16.80;41.50
6958;DHT22;50346;51.268;15.942;2022-07-10T10:36:15;16.80;99.90
6958;DHT22;50346;51.268;15.942;2022-07-10T10:39:08;16.70;99.90
6958;DHT22;50346;51.268;15.942;2022-07-10T10:49:26;17.10;1.00
6958;DHT22;50346;51.268;15.942;2022-07-10T10:52:09;17.20;1.00
6958;DHT22;50346;51.268;15.942;2022-07-10T10:57:49;17.00;99.90
6958;DHT22;50346;51.268;15.942;2022-07-10T11:00:31;16.80;99.90
6958;DHT22;50346;51.268;15.942;2022-07-10T11:03:16;16.80;79.50
6958;DHT22;50346;51.268;15.942;2022-07-10T11:05:43;16.70;42.40
6958;DHT22;50346;51.268;15.942;2022-07-10T11:08:10;16.80;99.90
6958;DHT22;50346;51.268;15.942;2022-07-10T11:13:08;17.00;99.90
6958;DHT22;50346;51.268;15.942;2022-07-10T11:15:37;17.00;1.00
6958;DHT22;50346;51.268;15.942;2022-07-10T11:18:05;17.00;1.00
6958;DHT22;50346;51.268;15.942;2022-07-10T11:20:35;17.20;99.90
6958;DHT22;50346;51.268;15.942;2022-07-10T11:31:13;17.50;1.00
6958;DHT22;50346;51.268;15.942;2022-07-10T11:33:40;17.40;94.50
6958;DHT22;50346;51.268;15.942;2022-07-10T11:36:15;17.20;1.00
6958;DHT22;50346;51.268;15.942;2022-07-10T11:38:41;17.00;99.90
6958;DHT22;50346;51.268;15.942;2022-07-10T11:41:17;16.90;86.10
6958;DHT22;50346;51.268;15.942;2022-07-10T11:43:51;16.90;99.90
6958;DHT22;50346;51.268;15.942;2022-07-10T11:46:18;17.10;99.90
6958;DHT22;50346;51.268;15.942;2022-07-10T11:48:44;17.20;1.00
6958;DHT22;50346;51.268;15.942;2022-07-10T11:56:23;17.50;99.90
6958;DHT22;50346;51.268;15.942;2022-07-10T11:58:56;17.60;99.90
6958;DHT22;50346;51.268;15.942;2022-07-10T12:01:22;17.60;99.90
6958;DHT22;50346;51.268;15.942;2022-07-10T12:04:02;17.60;99.90
6958;DHT22;50346;51.268;15.942;2022-07-10T12:06:29;17.60;99.90
6958;DHT22;50346;51.268;15.942;2022-07-10T12:08:56;17.60;99.90
6958;DHT22;50346;51.268;15.942;2022-07-10T12:11:22;17.70;99.90
6958;DHT22;50346;51.268;15.942;2022-07-10T12:13:49;17.90;99.90
6958;DHT22;50346;51.268;15.942;2022-07-10T12:16:16;18.10;99.90
6958;DHT22;50346;51.268;15.942;2022-07-10T12:18:42;18.30;99.90
6958;DHT22;50346;51.268;15.942;2022-07-10T12:21:12;18.40;99.90
6958;DHT22;50346;51.268;15.942;2022-07-10T12:23:39;18.40;99.90
6958;DHT22;50346;51.268;15.942;2022-07-10T12:26:10;18.20;99.90
6958;DHT22;50346;51.268;15.942;2022-07-10T12:28:55;18.00;99.90
6958;DHT22;50346;51.268;15.942;2022-07-10T12:31:22;17.90;99.90
6958;DHT22;50346;51.268;15.942;2022-07-10T12:33:59;17.90;99.90
6958;DHT22;50346;51.268;15.942;2022-07-10T12:36:44;17.80;99.90
6958;DHT22;50346;51.268;15.942;2022-07-10T12:39:11;17.70;99.90
6958;DHT22;50346;51.268;15.942;2022-07-10T12:42:03;17.70;99.90
6958;DHT22;50346;51.268;15.942;2022-07-10T12:44:43;17.70;99.90
6958;DHT22;50346;51.268;15.942;2022-07-10T12:47:16;17.70;99.90
6958;DHT22;50346;51.268;15.942;2022-07-10T12:49:55;17.70;99.90
6958;DHT22;50346;51.268;15.942;2022-07-10T12:52:29;17.80;99.90
6958;DHT22;50346;51.268;15.942;2022-07-10T12:55:12;18.00;99.90
6958;DHT22;50346;51.268;15.942;2022-07-10T13:00:14;18.40;99.60
6958;DHT22;50346;51.268;15.942;2022-07-10T13:02:40;18.50;58.50
6958;DHT22;50346;51.268;15.942;2022-07-10T13:05:05;18.50;99.90
6958;DHT22;50346;51.268;15.942;2022-07-10T13:07:36;18.60;99.90
6958;DHT22;50346;51.268;15.942;2022-07-10T13:10:06;18.50;99.90
6958;DHT22;50346;51.268;15.942;2022-07-10T13:12:35;18.20;99.90
6958;DHT22;50346;51.268;15.942;2022-07-10T13:17:28;17.70;99.90
6958;DHT22;50346;51.268;15.942;2022-07-10T13:19:54;17.50;92.00
6958;DHT22;50346;51.268;15.942;2022-07-10T13:22:20;17.50;85.30
6958;DHT22;50346;51.268;15.942;2022-07-10T13:24:46;17.60;81.50
6958;DHT22;50346;51.268;15.942;2022-07-10T13:27:12;17.80;79.60
6958;DHT22;50346;51.268;15.942;2022-07-10T13:29:39;18.00;69.00
6958;DHT22;50346;51.268;15.942;2022-07-10T13:34:31;18.60;99.90
6958;DHT22;50346;51.268;15.942;2022-07-10T13:36:56;19.00;99.90
6958;DHT22;50346;51.268;15.942;2022-07-10T13:39:22;19.40;28.70
6958;DHT22;50346;51.268;15.942;2022-07-10T13:41:48;19.70;18.30
6958;DHT22;50346;51.268;15.942;2022-07-10T13:44:13;19.90;6.30
6958;DHT22;50346;51.268;15.942;2022-07-10T13:46:39;20.00;1.00
6958;DHT22;50346;51.268;15.942;2022-07-10T13:49:06;20.40;1.00
6958;DHT22;50346;51.268;15.942;2022-07-10T13:53:58;21.20;1.00
6958;DHT22;50346;51.268;15.942;2022-07-10T13:56:23;21.60;1.00
6958;DHT22;50346;51.268;15.942;2022-07-10T13:58:51;21.90;1.00
6958;DHT22;50346;51.268;15.942;2022-07-10T14:01:16;22.30;1.00
6958;DHT22;50346;51.268;15.942;2022-07-10T14:03:42;22.80;1.00
6958;DHT22;50346;51.268;15.942;2022-07-10T14:06:08;22.90;1.00
6958;DHT22;50346;51.268;15.942;2022-07-10T14:08:33;22.70;1.00
6958;DHT22;50346;51.268;15.942;2022-07-10T14:10:59;22.80;1.00
6958;DHT22;50346;51.268;15.942;2022-07-10T14:13:25;23.10;1.00
6958;DHT22;50346;51.268;15.942;2022-07-10T14:15:50;23.10;1.00
6958;DHT22;50346;51.268;15.942;2022-07-10T14:18:16;23.20;1.00
6958;DHT22;50346;51.268;15.942;2022-07-10T14:21:04;23.70;55.80
6958;DHT22;50346;51.268;15.942;2022-07-10T14:25:57;24.90;1.00
6958;DHT22;50346;51.268;15.942;2022-07-10T14:28:23;25.00;1.00
6958;DHT22;50346;51.268;15.942;2022-07-10T14:30:49;25.40;1.00
6958;DHT22;50346;51.268;15.942;2022-07-10T14:35:41;26.40;99.90
6958;DHT22;50346;51.268;15.942;2022-07-10T14:45:25;23.50;1.00
6958;DHT22;50346;51.268;15.942;2022-07-10T14:50:17;22.20;1.00
6958;DHT22;50346;51.268;15.942;2022-07-10T14:52:43;22.10;1.00
6958;DHT22;50346;51.268;15.942;2022-07-10T14:55:09;22.00;1.00
6958;DHT22;50346;51.268;15.942;2022-07-10T15:00:01;21.20;1.00
6958;DHT22;50346;51.268;15.942;2022-07-10T15:02:28;21.10;1.00
6958;DHT22;50346;51.268;15.942;2022-07-10T15:04:54;21.40;1.00
6958;DHT22;50346;51.268;15.942;2022-07-10T15:07:20;21.20;1.00
6958;DHT22;50346;51.268;15.942;2022-07-10T15:09:45;20.80;99.90
6958;DHT22;50346;51.268;15.942;2022-07-10T15:14:37;20.20;1.00
6958;DHT22;50346;51.268;15.942;2022-07-10T15:17:03;20.10;1.00
6958;DHT22;50346;51.268;15.942;2022-07-10T15:19:29;20.10;1.00
6958;DHT22;50346;51.268;15.942;2022-07-10T15:24:21;19.90;1.00
6958;DHT22;50346;51.268;15.942;2022-07-10T15:29:13;19.50;1.00
6958;DHT22;50346;51.268;15.942;2022-07-10T15:34:10;19.00;1.00
6958;DHT22;50346;51.268;15.942;2022-07-10T15:36:38;18.90;1.00
6958;DHT22;50346;51.268;15.942;2022-07-10T15:39:04;18.90;1.00
6958;DHT22;50346;51.268;15.942;2022-07-10T15:41:29;19.00;1.00
6958;DHT22;50346;51.268;15.942;2022-07-10T15:43:55;19.30;1.00
6958;DHT22;50346;51.268;15.942;2022-07-10T15:46:21;20.40;1.00
6958;DHT22;50346;51.268;15.942;2022-07-10T15:48:46;22.00;1.00
6958;DHT22;50346;51.268;15.942;2022-07-10T15:51:12;24.50;1.00
6958;DHT22;50346;51.268;15.942;2022-07-10T15:53:40;25.70;65.00
6958;DHT22;50346;51.268;15.942;2022-07-10T15:56:06;25.60;99.90
6958;DHT22;50346;51.268;15.942;2022-07-10T16:00:58;24.10;1.00
6958;DHT22;50346;51.268;15.942;2022-07-10T16:03:23;24.20;1.00
6958;DHT22;50346;51.268;15.942;2022-07-10T16:05:49;24.50;1.00
6958;DHT22;50346;51.268;15.942;2022-07-10T16:08:15;24.40;1.00
6958;DHT22;50346;51.268;15.942;2022-07-10T16:15:37;22.70;1.00
6958;DHT22;50346;51.268;15.942;2022-07-10T16:18:02;22.00;1.00
6958;DHT22;50346;51.268;15.942;2022-07-10T16:22:54;21.30;1.00
6958;DHT22;50346;51.268;15.942;2022-07-10T16:28:04;20.70;1.00
6958;DHT22;50346;51.268;15.942;2022-07-10T16:30:30;20.50;1.00
6958;DHT22;50346;51.268;15.942;2022-07-10T16:32:56;20.40;1.00
6958;DHT22;50346;51.268;15.942;2022-07-10T16:35:21;20.20;1.00
6958;DHT22;50346;51.268;15.942;2022-07-10T16:37:47;20.10;1.00
6958;DHT22;50346;51.268;15.942;2022-07-10T16:40:13;20.70;1.00
6958;DHT22;50346;51.268;15.942;2022-07-10T16:42:38;20.90;1.00
6958;DHT22;50346;51.268;15.942;2022-07-10T16:45:04;20.90;1.00
6958;DHT22;50346;51.268;15.942;2022-07-10T16:47:30;20.80;1.00
6958;DHT22;50346;51.268;15.942;2022-07-10T16:49:56;21.00;1.00
6958;DHT22;50346;51.268;15.942;2022-07-10T16:52:23;22.00;99.90
6958;DHT22;50346;51.268;15.942;2022-07-10T16:57:16;24.00;1.00
6958;DHT22;50346;51.268;15.942;2022-07-10T16:59:42;23.60;1.00
6958;DHT22;50346;51.268;15.942;2022-07-10T17:02:07;23.30;1.00
6958;DHT22;50346;51.268;15.942;2022-07-10T17:04:33;23.30;1.00
6958;DHT22;50346;51.268;15.942;2022-07-10T17:07:03;23.00;1.00
6958;DHT22;50346;51.268;15.942;2022-07-10T17:09:29;22.60;1.00
6958;DHT22;50346;51.268;15.942;2022-07-10T17:14:20;22.00;1.00
6958;DHT22;50346;51.268;15.942;2022-07-10T17:16:46;22.80;1.00
6958;DHT22;50346;51.268;15.942;2022-07-10T17:19:12;22.80;1.00
6958;DHT22;50346;51.268;15.942;2022-07-10T17:21:37;22.80;1.00
6958;DHT22;50346;51.268;15.942;2022-07-10T17:24:03;22.80;1.00
6958;DHT22;50346;51.268;15.942;2022-07-10T17:26:29;22.80;1.00
6958;DHT22;50346;51.268;15.942;2022-07-10T17:31:21;24.00;1.00
6958;DHT22;50346;51.268;15.942;2022-07-10T17:33:47;24.60;1.00
6958;DHT22;50346;51.268;15.942;2022-07-10T17:36:12;24.40;1.00
6958;DHT22;50346;51.268;15.942;2022-07-10T17:38:38;23.70;1.00
6958;DHT22;50346;51.268;15.942;2022-07-10T17:43:32;22.20;56.00
6958;DHT22;50346;51.268;15.942;2022-07-10T17:48:24;20.80;1.00
6958;DHT22;50346;51.268;15.942;2022-07-10T17:50:51;20.40;99.90
6958;DHT22;50346;51.268;15.942;2022-07-10T17:53:17;20.40;99.90
6958;DHT22;50346;51.268;15.942;2022-07-10T17:58:09;20.00;1.00
6958;DHT22;50346;51.268;15.942;2022-07-10T18:00:35;19.50;1.00
6958;DHT22;50346;51.268;15.942;2022-07-10T18:03:00;19.30;1.00
6958;DHT22;50346;51.268;15.942;2022-07-10T18:05:26;19.10;1.00
6958;DHT22;50346;51.268;15.942;2022-07-10T18:10:18;18.70;1.00
6958;DHT22;50346;51.268;15.942;2022-07-10T18:12:43;18.50;99.90
6958;DHT22;50346;51.268;15.942;2022-07-10T18:15:09;18.40;97.70
6958;DHT22;50346;51.268;15.942;2022-07-10T18:17:35;18.30;1.00
6958;DHT22;50346;51.268;15.942;2022-07-10T18:20:01;18.30;1.00
6958;DHT22;50346;51.268;15.942;2022-07-10T18:22:26;18.30;1.00
6958;DHT22;50346;51.268;15.942;2022-07-10T18:24:52;18.20;1.00
6958;DHT22;50346;51.268;15.942;2022-07-10T18:29:44;18.00;1.00
6958;DHT22;50346;51.268;15.942;2022-07-10T18:34:41;17.90;99.90
6958;DHT22;50346;51.268;15.942;2022-07-10T18:37:07;17.90;5.70
6958;DHT22;50346;51.268;15.942;2022-07-10T18:39:33;17.80;1.00
6958;DHT22;50346;51.268;15.942;2022-07-10T18:42:00;17.80;99.90
6958;DHT22;50346;51.268;15.942;2022-07-10T18:44:26;17.80;99.90
6958;DHT22;50346;51.268;15.942;2022-07-10T18:46:52;17.90;99.90
6958;DHT22;50346;51.268;15.942;2022-07-10T18:49:17;17.90;99.90
6958;DHT22;50346;51.268;15.942;2022-07-10T18:51:44;18.00;99.90
6958;DHT22;50346;51.268;15.942;2022-07-10T18:54:10;17.90;99.90
6958;DHT22;50346;51.268;15.942;2022-07-10T18:56:36;17.90;99.90
6958;DHT22;50346;51.268;15.942;2022-07-10T18:59:01;17.80;99.90
6958;DHT22;50346;51.268;15.942;2022-07-10T19:03:54;17.60;1.00
6958;DHT22;50346;51.268;15.942;2022-07-10T19:06:21;17.60;99.90
6958;DHT22;50346;51.268;15.942;2022-07-10T19:11:13;17.40;99.90
6958;DHT22;50346;51.268;15.942;2022-07-10T19:25:49;17.00;1.00
6958;DHT22;50346;51.268;15.942;2022-07-10T19:28:16;17.00;1.00
6958;DHT22;50346;51.268;15.942;2022-07-10T19:33:08;16.70;97.70
6958;DHT22;50346;51.268;15.942;2022-07-10T19:35:34;16.60;99.90
6958;DHT22;50346;51.268;15.942;2022-07-10T19:38:01;16.40;99.90
6958;DHT22;50346;51.268;15.942;2022-07-10T19:40:27;16.30;99.90
6958;DHT22;50346;51.268;15.942;2022-07-10T19:42:54;16.30;99.90
6958;DHT22;50346;51.268;15.942;2022-07-10T20:00:00;15.90;99.90
6958;DHT22;50346;51.268;15.942;2022-07-10T20:02:26;15.90;99.90
6958;DHT22;50346;51.268;15.942;2022-07-10T20:04:51;15.80;99.90
6958;DHT22;50346;51.268;15.942;2022-07-10T20:07:17;15.70;99.90
6958;DHT22;50346;51.268;15.942;2022-07-10T20:09:43;15.60;1.00
6958;DHT22;50346;51.268;15.942;2022-07-10T20:12:08;15.50;99.90
6958;DHT22;50346;51.268;15.942;2022-07-10T20:14:34;15.50;99.90
6958;DHT22;50346;51.268;15.942;2022-07-10T20:17:01;15.40;99.90
6958;DHT22;50346;51.268;15.942;2022-07-10T20:21:55;15.30;99.90
6958;DHT22;50346;51.268;15.942;2022-07-10T20:24:21;15.30;99.90
6958;DHT22;50346;51.268;15.942;2022-07-10T20:26:46;15.20;99.90
6958;DHT22;50346;51.268;15.942;2022-07-10T20:29:12;15.20;99.90
6958;DHT22;50346;51.268;15.942;2022-07-10T20:31:38;15.20;1.00
6958;DHT22;50346;51.268;15.942;2022-07-10T20:34:03;15.10;1.00
6958;DHT22;50346;51.268;15.942;2022-07-10T20:36:29;15.10;1.00
6958;DHT22;50346;51.268;15.942;2022-07-10T20:39:13;15.10;1.00
6958;DHT22;50346;51.268;15.942;2022-07-10T20:41:39;15.00;1.00
6958;DHT22;50346;51.268;15.942;2022-07-10T20:46:31;14.80;99.90
6958;DHT22;50346;51.268;15.942;2022-07-10T20:48:57;14.70;99.90
6958;DHT22;50346;51.268;15.942;2022-07-10T20:51:22;14.60;99.90
6958;DHT22;50346;51.268;15.942;2022-07-10T20:53:48;14.50;99.90
6958;DHT22;50346;51.268;15.942;2022-07-10T20:56:14;14.40;1.00
6958;DHT22;50346;51.268;15.942;2022-07-10T20:58:40;14.30;43.00
6958;DHT22;50346;51.268;15.942;2022-07-10T21:01:05;14.20;99.90
6958;DHT22;50346;51.268;15.942;2022-07-10T21:03:31;14.10;99.90
6958;DHT22;50346;51.268;15.942;2022-07-10T21:05:56;14.10;82.60
6958;DHT22;50346;51.268;15.942;2022-07-10T21:13:19;13.80;99.90
6958;DHT22;50346;51.268;15.942;2022-07-10T21:15:47;13.80;1.00
6958;DHT22;50346;51.268;15.942;2022-07-10T21:20:39;13.60;1.00
6958;DHT22;50346;51.268;15.942;2022-07-10T21:23:05;13.60;74.80